sensor_id;sensor_type;location;lat;lon;timestamp;temperature;humidity
15083;DHT22;7640;53.116;6.878;2023-08-30T00:00:32;15.80;99.90
15083;DHT22;7640;53.116;6.878;2023-08-30T00:03:01;15.70;99.90
15083;DHT22;7640;53.116;6.878;2023-08-30T00:05:31;15.70;99.90
15083;DHT22;7640;53.116;6.878;2023-08-30T00:08:00;15.60;99.90
15083;DHT22;7640;53.116;6.878;2023-08-30T00:10:29;15.60;99.90
15083;DHT22;7640;53.116;6.878;2023-08-30T00:12:58;15.60;99.90
15083;DHT22;7640;53.116;6.878;2023-08-30T00:15:27;15.50;99.90
15083;DHT22;7640;53.116;6.878;2023-08-30T00:17:57;15.50;99.90
15083;DHT22;7640;53.116;6.878;2023-08-30T00:20:26;15.50;99.90
15083;DHT22;7640;53.116;6.878;2023-08-30T00:22:54;15.40;99.90
15083;DHT22;7640;53.116;6.878;2023-08-30T00:25:23;15.40;99.90
15083;DHT22;7640;53.116;6.878;2023-08-30T00:27:51;15.40;99.90
15083;DHT22;7640;53.116;6.878;2023-08-30T00:30:20;15.30;99.90
15083;DHT22;7640;53.116;6.878;2023-08-30T00:32:48;15.30;99.90
15083;DHT22;7640;53.116;6.878;2023-08-30T00:35:19;15.30;99.90
15083;DHT22;7640;53.116;6.878;2023-08-30T00:37:47;15.30;99.90
15083;DHT22;7640;53.116;6.878;2023-08-30T00:40:16;15.20;99.90
15083;DHT22;7640;53.116;6.878;2023-08-30T00:42:44;15.20;99.90
15083;DHT22;7640;53.116;6.878;2023-08-30T00:45:13;15.10;99.90
15083;DHT22;7640;53.116;6.878;2023-08-30T00:47:42;15.10;99.90
15083;DHT22;7640;53.116;6.878;2023-08-30T00:50:11;15.10;99.90
15083;DHT22;7640;53.116;6.878;2023-08-30T00:52:42;15.00;99.90
15083;DHT22;7640;53.116;6.878;2023-08-30T00:55:11;15.00;99.90
15083;DHT22;7640;53.116;6.878;2023-08-30T00:57:40;15.00;99.90
15083;DHT22;7640;53.116;6.878;2023-08-30T01:00:09;15.00;99.90
15083;DHT22;7640;53.116;6.878;2023-08-30T01:02:39;14.90;99.90
15083;DHT22;7640;53.116;6.878;2023-08-30T01:05:08;14.90;99.90
15083;DHT22;7640;53.116;6.878;2023-08-30T01:07:37;14.90;99.90
15083;DHT22;7640;53.116;6.878;2023-08-30T01:10:08;14.90;99.90
15083;DHT22;7640;53.116;6.878;2023-08-30T01:12:40;14.90;99.90
15083;DHT22;7640;53.116;6.878;2023-08-30T01:15:14;14.80;99.90
15083;DHT22;7640;53.116;6.878;2023-08-30T01:17:44;14.80;99.90
15083;DHT22;7640;53.116;6.878;2023-08-30T01:20:16;14.80;99.90
15083;DHT22;7640;53.116;6.878;2023-08-30T01:22:53;14.80;99.90
15083;DHT22;7640;53.116;6.878;2023-08-30T01:25:32;14.80;99.90
15083;DHT22;7640;53.116;6.878;2023-08-30T01:28:07;14.80;99.90
15083;DHT22;7640;53.116;6.878;2023-08-30T01:30:40;14.70;99.90
15083;DHT22;7640;53.116;6.878;2023-08-30T01:33:11;14.70;99.90
15083;DHT22;7640;53.116;6.878;2023-08-30T01:35:42;14.70;99.90
15083;DHT22;7640;53.116;6.878;2023-08-30T01:38:11;14.60;99.90
15083;DHT22;7640;53.116;6.878;2023-08-30T01:40:42;14.60;99.90
15083;DHT22;7640;53.116;6.878;2023-08-30T01:43:13;14.60;99.90
15083;DHT22;7640;53.116;6.878;2023-08-30T01:45:43;14.60;99.90
15083;DHT22;7640;53.116;6.878;2023-08-30T01:48:13;14.50;99.90
15083;DHT22;7640;53.116;6.878;2023-08-30T01:50:44;14.50;99.90
15083;DHT22;7640;53.116;6.878;2023-08-30T01:53:13;14.50;99.90
15083;DHT22;7640;53.116;6.878;2023-08-30T01:55:42;14.40;99.90
15083;DHT22;7640;53.116;6.878;2023-08-30T01:58:13;14.40;99.90
15083;DHT22;7640;53.116;6.878;2023-08-30T02:00:42;14.40;99.90
15083;DHT22;7640;53.116;6.878;2023-08-30T02:03:13;14.40;99.90
15083;DHT22;7640;53.116;6.878;2023-08-30T02:05:51;14.40;99.90
15083;DHT22;7640;53.116;6.878;2023-08-30T02:08:32;14.40;99.90
15083;DHT22;7640;53.116;6.878;2023-08-30T02:11:08;14.40;99.90
15083;DHT22;7640;53.116;6.878;2023-08-30T02:13:44;14.40;99.90
15083;DHT22;7640;53.116;6.878;2023-08-30T02:16:13;14.40;99.90
15083;DHT22;7640;53.116;6.878;2023-08-30T02:18:45;14.40;99.90
15083;DHT22;7640;53.116;6.878;2023-08-30T02:21:14;14.30;99.90
15083;DHT22;7640;53.116;6.878;2023-08-30T02:23:42;14.30;99.90
15083;DHT22;7640;53.116;6.878;2023-08-30T02:26:11;14.30;99.90
15083;DHT22;7640;53.116;6.878;2023-08-30T02:28:40;14.30;99.90
15083;DHT22;7640;53.116;6.878;2023-08-30T02:31:10;14.30;99.90
15083;DHT22;7640;53.116;6.878;2023-08-30T02:33:41;14.20;99.90
15083;DHT22;7640;53.116;6.878;2023-08-30T02:36:10;14.20;99.90
15083;DHT22;7640;53.116;6.878;2023-08-30T02:38:39;14.10;99.90
15083;DHT22;7640;53.116;6.878;2023-08-30T02:41:07;14.10;99.90
15083;DHT22;7640;53.116;6.878;2023-08-30T02:43:37;14.10;99.90
15083;DHT22;7640;53.116;6.878;2023-08-30T02:46:05;14.00;99.90
15083;DHT22;7640;53.116;6.878;2023-08-30T02:48:35;14.10;99.90
15083;DHT22;7640;53.116;6.878;2023-08-30T02:51:05;14.00;99.90
15083;DHT22;7640;53.116;6.878;2023-08-30T02:53:34;14.00;99.90
15083;DHT22;7640;53.116;6.878;2023-08-30T02:56:03;14.00;99.90
15083;DHT22;7640;53.116;6.878;2023-08-30T02:58:32;13.90;99.90
15083;DHT22;7640;53.116;6.878;2023-08-30T03:01:02;13.90;99.90
15083;DHT22;7640;53.116;6.878;2023-08-30T03:03:31;13.90;99.90
15083;DHT22;7640;53.116;6.878;2023-08-30T03:06:01;13.90;99.90
15083;DHT22;7640;53.116;6.878;2023-08-30T03:08:31;13.80;99.90
15083;DHT22;7640;53.116;6.878;2023-08-30T03:11:08;13.80;99.90
15083;DHT22;7640;53.116;6.878;2023-08-30T03:13:37;13.80;99.90
15083;DHT22;7640;53.116;6.878;2023-08-30T03:16:15;13.70;99.90
15083;DHT22;7640;53.116;6.878;2023-08-30T03:18:44;13.80;99.90
15083;DHT22;7640;53.116;6.878;2023-08-30T03:21:15;13.70;99.90
15083;DHT22;7640;53.116;6.878;2023-08-30T03:23:44;13.70;99.90
15083;DHT22;7640;53.116;6.878;2023-08-30T03:26:14;13.60;99.90
15083;DHT22;7640;53.116;6.878;2023-08-30T03:28:44;13.60;99.90
15083;DHT22;7640;53.116;6.878;2023-08-30T03:31:14;13.60;99.90
15083;DHT22;7640;53.116;6.878;2023-08-30T03:33:47;13.60;99.90
15083;DHT22;7640;53.116;6.878;2023-08-30T03:36:18;13.50;99.90
15083;DHT22;7640;53.116;6.878;2023-08-30T03:38:47;13.50;99.90
15083;DHT22;7640;53.116;6.878;2023-08-30T03:41:15;13.50;99.90
15083;DHT22;7640;53.116;6.878;2023-08-30T03:43:45;13.40;99.90
15083;DHT22;7640;53.116;6.878;2023-08-30T03:46:14;13.40;99.90
15083;DHT22;7640;53.116;6.878;2023-08-30T03:48:43;13.40;99.90
15083;DHT22;7640;53.116;6.878;2023-08-30T03:51:12;13.40;99.90
15083;DHT22;7640;53.116;6.878;2023-08-30T03:53:42;13.30;99.90
15083;DHT22;7640;53.116;6.878;2023-08-30T03:56:11;13.30;99.90
15083;DHT22;7640;53.116;6.878;2023-08-30T03:58:40;13.30;99.90
15083;DHT22;7640;53.116;6.878;2023-08-30T04:01:09;13.30;99.90
15083;DHT22;7640;53.116;6.878;2023-08-30T04:03:37;13.30;99.90
15083;DHT22;7640;53.116;6.878;2023-08-30T04:06:07;13.30;99.90
15083;DHT22;7640;53.116;6.878;2023-08-30T04:08:36;13.20;99.90
15083;DHT22;7640;53.116;6.878;2023-08-30T04:11:06;13.20;99.90
15083;DHT22;7640;53.116;6.878;2023-08-30T04:13:34;13.20;99.90
15083;DHT22;7640;53.116;6.878;2023-08-30T04:16:04;13.10;99.90
15083;DHT22;7640;53.116;6.878;2023-08-30T04:18:32;13.10;99.90
15083;DHT22;7640;53.116;6.878;2023-08-30T04:21:01;13.10;99.90
15083;DHT22;7640;53.116;6.878;2023-08-30T04:23:30;13.10;99.90
15083;DHT22;7640;53.116;6.878;2023-08-30T04:26:03;13.00;99.90
15083;DHT22;7640;53.116;6.878;2023-08-30T04:28:33;13.00;99.90
15083;DHT22;7640;53.116;6.878;2023-08-30T04:31:01;13.00;99.90
15083;DHT22;7640;53.116;6.878;2023-08-30T04:33:30;13.00;99.90
15083;DHT22;7640;53.116;6.878;2023-08-30T04:36:02;12.90;99.90
15083;DHT22;7640;53.116;6.878;2023-08-30T04:38:32;12.90;99.90
15083;DHT22;7640;53.116;6.878;2023-08-30T04:41:11;12.90;99.90
15083;DHT22;7640;53.116;6.878;2023-08-30T04:43:41;12.90;99.90
15083;DHT22;7640;53.116;6.878;2023-08-30T04:46:10;12.90;99.90
15083;DHT22;7640;53.116;6.878;2023-08-30T04:48:38;12.80;99.90
15083;DHT22;7640;53.116;6.878;2023-08-30T04:51:07;12.80;99.90
15083;DHT22;7640;53.116;6.878;2023-08-30T04:53:38;12.80;99.90
15083;DHT22;7640;53.116;6.878;2023-08-30T04:56:12;12.80;99.90
15083;DHT22;7640;53.116;6.878;2023-08-30T04:58:42;12.80;99.90
15083;DHT22;7640;53.116;6.878;2023-08-30T05:01:11;12.80;99.90
15083;DHT22;7640;53.116;6.878;2023-08-30T05:03:40;12.80;99.90
15083;DHT22;7640;53.116;6.878;2023-08-30T05:06:10;12.80;99.90
15083;DHT22;7640;53.116;6.878;2023-08-30T05:08:43;12.80;99.90
15083;DHT22;7640;53.116;6.878;2023-08-30T05:11:12;12.80;99.90
15083;DHT22;7640;53.116;6.878;2023-08-30T05:13:42;12.80;99.90
15083;DHT22;7640;53.116;6.878;2023-08-30T05:16:10;12.90;99.90
15083;DHT22;7640;53.116;6.878;2023-08-30T05:18:39;13.00;99.90
15083;DHT22;7640;53.116;6.878;2023-08-30T05:21:08;13.10;99.90
15083;DHT22;7640;53.116;6.878;2023-08-30T05:23:36;13.20;99.90
15083;DHT22;7640;53.116;6.878;2023-08-30T05:26:07;13.20;99.90
15083;DHT22;7640;53.116;6.878;2023-08-30T05:28:36;13.30;99.90
15083;DHT22;7640;53.116;6.878;2023-08-30T05:31:06;13.30;99.90
15083;DHT22;7640;53.116;6.878;2023-08-30T05:33:34;13.40;99.90
15083;DHT22;7640;53.116;6.878;2023-08-30T05:36:03;13.50;99.90
15083;DHT22;7640;53.116;6.878;2023-08-30T05:38:32;13.50;99.90
15083;DHT22;7640;53.116;6.878;2023-08-30T05:41:01;13.60;99.90
15083;DHT22;7640;53.116;6.878;2023-08-30T05:43:30;13.70;99.90
15083;DHT22;7640;53.116;6.878;2023-08-30T05:45:59;13.70;99.90
15083;DHT22;7640;53.116;6.878;2023-08-30T05:48:32;13.80;99.90
15083;DHT22;7640;53.116;6.878;2023-08-30T05:51:02;13.90;99.90
15083;DHT22;7640;53.116;6.878;2023-08-30T05:53:31;14.00;99.90
15083;DHT22;7640;53.116;6.878;2023-08-30T05:56:00;14.10;99.90
15083;DHT22;7640;53.116;6.878;2023-08-30T05:58:30;14.10;99.90
15083;DHT22;7640;53.116;6.878;2023-08-30T06:00:59;14.20;99.90
15083;DHT22;7640;53.116;6.878;2023-08-30T06:03:32;14.30;99.90
15083;DHT22;7640;53.116;6.878;2023-08-30T06:06:02;14.30;99.90
15083;DHT22;7640;53.116;6.878;2023-08-30T06:08:32;14.40;99.90
15083;DHT22;7640;53.116;6.878;2023-08-30T06:11:02;14.50;99.90
15083;DHT22;7640;53.116;6.878;2023-08-30T06:13:31;14.50;99.90
15083;DHT22;7640;53.116;6.878;2023-08-30T06:16:00;14.60;99.90
15083;DHT22;7640;53.116;6.878;2023-08-30T06:18:31;14.70;99.90
15083;DHT22;7640;53.116;6.878;2023-08-30T06:21:00;14.70;99.90
15083;DHT22;7640;53.116;6.878;2023-08-30T06:23:33;14.80;99.90
15083;DHT22;7640;53.116;6.878;2023-08-30T06:26:08;14.90;99.90
15083;DHT22;7640;53.116;6.878;2023-08-30T06:28:36;15.00;99.90
15083;DHT22;7640;53.116;6.878;2023-08-30T06:31:08;15.00;99.90
15083;DHT22;7640;53.116;6.878;2023-08-30T06:33:38;15.10;99.90
15083;DHT22;7640;53.116;6.878;2023-08-30T06:36:08;15.10;99.90
15083;DHT22;7640;53.116;6.878;2023-08-30T06:38:38;15.20;99.90
15083;DHT22;7640;53.116;6.878;2023-08-30T06:41:06;15.20;99.90
15083;DHT22;7640;53.116;6.878;2023-08-30T06:43:35;15.30;99.90
15083;DHT22;7640;53.116;6.878;2023-08-30T06:46:05;15.40;99.90
15083;DHT22;7640;53.116;6.878;2023-08-30T06:48:34;15.40;99.90
15083;DHT22;7640;53.116;6.878;2023-08-30T06:51:04;15.50;99.90
15083;DHT22;7640;53.116;6.878;2023-08-30T06:53:34;15.60;99.90
15083;DHT22;7640;53.116;6.878;2023-08-30T06:56:03;15.70;99.90
15083;DHT22;7640;53.116;6.878;2023-08-30T06:58:31;15.80;99.90
15083;DHT22;7640;53.116;6.878;2023-08-30T07:01:02;15.90;99.90
15083;DHT22;7640;53.116;6.878;2023-08-30T07:03:31;16.00;99.90
15083;DHT22;7640;53.116;6.878;2023-08-30T07:06:04;16.10;99.90
15083;DHT22;7640;53.116;6.878;2023-08-30T07:08:33;16.10;99.90
15083;DHT22;7640;53.116;6.878;2023-08-30T07:11:01;16.20;99.90
15083;DHT22;7640;53.116;6.878;2023-08-30T07:13:30;16.30;99.90
15083;DHT22;7640;53.116;6.878;2023-08-30T07:16:00;16.40;99.90
15083;DHT22;7640;53.116;6.878;2023-08-30T07:18:28;16.40;99.90
15083;DHT22;7640;53.116;6.878;2023-08-30T07:20:57;16.50;99.90
15083;DHT22;7640;53.116;6.878;2023-08-30T07:23:35;16.50;99.90
15083;DHT22;7640;53.116;6.878;2023-08-30T07:26:04;16.60;99.90
15083;DHT22;7640;53.116;6.878;2023-08-30T07:28:33;16.60;99.90
15083;DHT22;7640;53.116;6.878;2023-08-30T07:31:05;16.70;99.90
15083;DHT22;7640;53.116;6.878;2023-08-30T07:33:34;16.80;99.90
15083;DHT22;7640;53.116;6.878;2023-08-30T07:36:04;16.80;99.90
15083;DHT22;7640;53.116;6.878;2023-08-30T07:38:34;16.90;99.90
15083;DHT22;7640;53.116;6.878;2023-08-30T07:41:03;17.00;99.90
15083;DHT22;7640;53.116;6.878;2023-08-30T07:43:32;17.00;99.90
15083;DHT22;7640;53.116;6.878;2023-08-30T07:46:02;17.10;99.90
15083;DHT22;7640;53.116;6.878;2023-08-30T07:48:31;17.20;99.90
15083;DHT22;7640;53.116;6.878;2023-08-30T07:51:01;17.20;99.90
15083;DHT22;7640;53.116;6.878;2023-08-30T07:53:30;17.30;99.90
15083;DHT22;7640;53.116;6.878;2023-08-30T07:56:00;17.30;99.90
15083;DHT22;7640;53.116;6.878;2023-08-30T07:58:29;17.40;99.90
15083;DHT22;7640;53.116;6.878;2023-08-30T08:00:58;17.40;99.90
15083;DHT22;7640;53.116;6.878;2023-08-30T08:03:27;17.40;99.90
15083;DHT22;7640;53.116;6.878;2023-08-30T08:05:57;17.40;99.90
15083;DHT22;7640;53.116;6.878;2023-08-30T08:08:27;17.50;99.90
15083;DHT22;7640;53.116;6.878;2023-08-30T08:10:55;17.50;99.90
15083;DHT22;7640;53.116;6.878;2023-08-30T08:13:25;17.60;99.90
15083;DHT22;7640;53.116;6.878;2023-08-30T08:15:56;17.60;99.90
15083;DHT22;7640;53.116;6.878;2023-08-30T08:18:25;17.70;99.90
15083;DHT22;7640;53.116;6.878;2023-08-30T08:20:54;17.80;99.90
15083;DHT22;7640;53.116;6.878;2023-08-30T08:23:23;17.90;99.90
15083;DHT22;7640;53.116;6.878;2023-08-30T08:25:57;17.90;99.90
15083;DHT22;7640;53.116;6.878;2023-08-30T08:28:27;18.10;99.90
15083;DHT22;7640;53.116;6.878;2023-08-30T08:30:57;18.20;99.90
15083;DHT22;7640;53.116;6.878;2023-08-30T08:33:25;18.30;99.90
15083;DHT22;7640;53.116;6.878;2023-08-30T08:35:54;18.50;99.90
15083;DHT22;7640;53.116;6.878;2023-08-30T08:38:23;18.60;99.90
15083;DHT22;7640;53.116;6.878;2023-08-30T08:40:53;18.70;99.90
15083;DHT22;7640;53.116;6.878;2023-08-30T08:43:33;18.70;99.90
15083;DHT22;7640;53.116;6.878;2023-08-30T08:46:04;18.70;99.90
15083;DHT22;7640;53.116;6.878;2023-08-30T08:48:39;18.70;99.90
15083;DHT22;7640;53.116;6.878;2023-08-30T08:51:09;18.70;99.90
15083;DHT22;7640;53.116;6.878;2023-08-30T08:53:38;18.70;99.90
15083;DHT22;7640;53.116;6.878;2023-08-30T08:56:08;18.60;99.90
15083;DHT22;7640;53.116;6.878;2023-08-30T08:58:39;18.70;99.90
15083;DHT22;7640;53.116;6.878;2023-08-30T09:01:08;18.70;99.90
15083;DHT22;7640;53.116;6.878;2023-08-30T09:03:55;18.80;99.90
15083;DHT22;7640;53.116;6.878;2023-08-30T09:06:24;18.90;99.90
15083;DHT22;7640;53.116;6.878;2023-08-30T09:08:52;19.00;99.90
15083;DHT22;7640;53.116;6.878;2023-08-30T09:11:21;19.20;99.90
15083;DHT22;7640;53.116;6.878;2023-08-30T09:14:08;19.40;99.90
15083;DHT22;7640;53.116;6.878;2023-08-30T09:16:37;19.50;99.90
15083;DHT22;7640;53.116;6.878;2023-08-30T09:19:06;19.60;99.90
15083;DHT22;7640;53.116;6.878;2023-08-30T09:21:37;19.70;99.90
15083;DHT22;7640;53.116;6.878;2023-08-30T09:24:06;19.70;99.90
15083;DHT22;7640;53.116;6.878;2023-08-30T09:26:35;19.80;99.90
15083;DHT22;7640;53.116;6.878;2023-08-30T09:29:08;19.80;99.90
15083;DHT22;7640;53.116;6.878;2023-08-30T09:31:38;19.90;99.90
15083;DHT22;7640;53.116;6.878;2023-08-30T09:34:10;19.80;99.90
15083;DHT22;7640;53.116;6.878;2023-08-30T09:36:39;19.80;99.90
15083;DHT22;7640;53.116;6.878;2023-08-30T09:39:10;19.70;99.90
15083;DHT22;7640;53.116;6.878;2023-08-30T09:41:41;19.60;99.90
15083;DHT22;7640;53.116;6.878;2023-08-30T09:44:16;19.50;99.90
15083;DHT22;7640;53.116;6.878;2023-08-30T09:46:46;19.40;99.90
15083;DHT22;7640;53.116;6.878;2023-08-30T09:49:19;19.40;99.90
15083;DHT22;7640;53.116;6.878;2023-08-30T09:51:50;19.30;99.90
15083;DHT22;7640;53.116;6.878;2023-08-30T09:54:21;19.20;99.90
15083;DHT22;7640;53.116;6.878;2023-08-30T09:56:54;19.10;99.90
15083;DHT22;7640;53.116;6.878;2023-08-30T09:59:27;19.00;99.90
15083;DHT22;7640;53.116;6.878;2023-08-30T10:01:57;18.90;99.90
15083;DHT22;7640;53.116;6.878;2023-08-30T10:04:28;18.90;99.90
15083;DHT22;7640;53.116;6.878;2023-08-30T10:06:57;18.90;99.90
15083;DHT22;7640;53.116;6.878;2023-08-30T10:09:27;18.90;99.90
15083;DHT22;7640;53.116;6.878;2023-08-30T10:11:58;18.90;99.90
15083;DHT22;7640;53.116;6.878;2023-08-30T10:14:30;18.80;99.90
15083;DHT22;7640;53.116;6.878;2023-08-30T10:17:01;18.80;99.90
15083;DHT22;7640;53.116;6.878;2023-08-30T10:19:37;18.70;99.90
15083;DHT22;7640;53.116;6.878;2023-08-30T10:22:07;18.60;99.90
15083;DHT22;7640;53.116;6.878;2023-08-30T10:24:40;18.60;99.90
15083;DHT22;7640;53.116;6.878;2023-08-30T10:27:31;18.60;99.90
15083;DHT22;7640;53.116;6.878;2023-08-30T10:30:05;18.60;99.90
15083;DHT22;7640;53.116;6.878;2023-08-30T10:32:39;18.50;99.90
15083;DHT22;7640;53.116;6.878;2023-08-30T10:35:11;18.60;99.90
15083;DHT22;7640;53.116;6.878;2023-08-30T10:37:41;18.60;99.90
15083;DHT22;7640;53.116;6.878;2023-08-30T10:40:10;18.60;99.90
15083;DHT22;7640;53.116;6.878;2023-08-30T10:42:40;18.70;99.90
15083;DHT22;7640;53.116;6.878;2023-08-30T10:45:10;18.80;99.90
15083;DHT22;7640;53.116;6.878;2023-08-30T10:47:40;19.00;99.90
15083;DHT22;7640;53.116;6.878;2023-08-30T10:50:10;19.10;99.90
15083;DHT22;7640;53.116;6.878;2023-08-30T10:52:40;19.20;99.90
15083;DHT22;7640;53.116;6.878;2023-08-30T10:55:09;19.20;99.90
15083;DHT22;7640;53.116;6.878;2023-08-30T10:57:42;19.30;99.90
15083;DHT22;7640;53.116;6.878;2023-08-30T11:00:20;19.30;99.90
15083;DHT22;7640;53.116;6.878;2023-08-30T11:02:49;19.40;99.90
15083;DHT22;7640;53.116;6.878;2023-08-30T11:05:21;19.40;99.90
15083;DHT22;7640;53.116;6.878;2023-08-30T11:07:51;19.50;99.90
15083;DHT22;7640;53.116;6.878;2023-08-30T11:10:20;19.50;99.90
15083;DHT22;7640;53.116;6.878;2023-08-30T11:12:49;19.50;99.90
15083;DHT22;7640;53.116;6.878;2023-08-30T11:15:20;19.50;99.90
15083;DHT22;7640;53.116;6.878;2023-08-30T11:17:49;19.50;99.90
15083;DHT22;7640;53.116;6.878;2023-08-30T11:20:18;19.50;99.90
15083;DHT22;7640;53.116;6.878;2023-08-30T11:22:48;19.50;99.90
15083;DHT22;7640;53.116;6.878;2023-08-30T11:25:18;19.60;99.90
15083;DHT22;7640;53.116;6.878;2023-08-30T11:27:47;19.60;99.90
15083;DHT22;7640;53.116;6.878;2023-08-30T11:30:16;19.70;99.90
15083;DHT22;7640;53.116;6.878;2023-08-30T11:32:47;19.80;99.90
15083;DHT22;7640;53.116;6.878;2023-08-30T11:35:17;19.90;99.90
15083;DHT22;7640;53.116;6.878;2023-08-30T11:37:47;20.00;99.90
15083;DHT22;7640;53.116;6.878;2023-08-30T11:40:16;20.00;99.90
15083;DHT22;7640;53.116;6.878;2023-08-30T11:42:46;20.00;99.90
15083;DHT22;7640;53.116;6.878;2023-08-30T11:45:17;19.90;99.90
15083;DHT22;7640;53.116;6.878;2023-08-30T11:47:48;19.90;99.90
15083;DHT22;7640;53.116;6.878;2023-08-30T11:50:17;19.70;99.90
15083;DHT22;7640;53.116;6.878;2023-08-30T11:52:46;19.60;99.90
15083;DHT22;7640;53.116;6.878;2023-08-30T11:55:17;19.40;99.90
15083;DHT22;7640;53.116;6.878;2023-08-30T11:57:49;19.10;99.90
15083;DHT22;7640;53.116;6.878;2023-08-30T12:00:19;18.80;99.90
15083;DHT22;7640;53.116;6.878;2023-08-30T12:02:51;18.60;99.90
15083;DHT22;7640;53.116;6.878;2023-08-30T12:05:21;18.50;99.90
15083;DHT22;7640;53.116;6.878;2023-08-30T12:07:50;18.40;99.90
15083;DHT22;7640;53.116;6.878;2023-08-30T12:10:19;18.30;99.90
15083;DHT22;7640;53.116;6.878;2023-08-30T12:12:48;18.30;99.90
15083;DHT22;7640;53.116;6.878;2023-08-30T12:15:16;18.30;99.90
15083;DHT22;7640;53.116;6.878;2023-08-30T12:17:46;18.40;99.90
15083;DHT22;7640;53.116;6.878;2023-08-30T12:20:17;18.50;99.90
15083;DHT22;7640;53.116;6.878;2023-08-30T12:22:47;18.50;99.90
15083;DHT22;7640;53.116;6.878;2023-08-30T12:25:22;18.50;99.90
15083;DHT22;7640;53.116;6.878;2023-08-30T12:27:51;18.50;99.90
15083;DHT22;7640;53.116;6.878;2023-08-30T12:30:20;18.50;99.90
15083;DHT22;7640;53.116;6.878;2023-08-30T12:32:48;18.50;99.90
15083;DHT22;7640;53.116;6.878;2023-08-30T12:35:18;18.40;99.90
15083;DHT22;7640;53.116;6.878;2023-08-30T12:37:47;18.40;99.90
15083;DHT22;7640;53.116;6.878;2023-08-30T12:40:17;18.40;99.90
15083;DHT22;7640;53.116;6.878;2023-08-30T12:42:45;18.40;99.90
15083;DHT22;7640;53.116;6.878;2023-08-30T12:45:14;18.40;99.90
15083;DHT22;7640;53.116;6.878;2023-08-30T12:47:43;18.50;99.90
15083;DHT22;7640;53.116;6.878;2023-08-30T12:50:12;18.50;99.90
15083;DHT22;7640;53.116;6.878;2023-08-30T12:52:42;18.50;99.90
15083;DHT22;7640;53.116;6.878;2023-08-30T12:55:10;18.50;99.90
15083;DHT22;7640;53.116;6.878;2023-08-30T12:57:39;18.50;99.90
15083;DHT22;7640;53.116;6.878;2023-08-30T13:00:08;18.50;99.90
15083;DHT22;7640;53.116;6.878;2023-08-30T13:02:37;18.50;99.90
15083;DHT22;7640;53.116;6.878;2023-08-30T13:05:07;18.50;99.90
15083;DHT22;7640;53.116;6.878;2023-08-30T13:07:35;18.50;99.90
15083;DHT22;7640;53.116;6.878;2023-08-30T13:10:07;18.60;99.90
15083;DHT22;7640;53.116;6.878;2023-08-30T13:12:36;18.60;99.90
15083;DHT22;7640;53.116;6.878;2023-08-30T13:15:09;18.70;99.90
15083;DHT22;7640;53.116;6.878;2023-08-30T13:17:38;18.70;99.90
15083;DHT22;7640;53.116;6.878;2023-08-30T13:20:08;18.70;99.90
15083;DHT22;7640;53.116;6.878;2023-08-30T13:22:38;18.60;99.90
15083;DHT22;7640;53.116;6.878;2023-08-30T13:25:08;18.40;99.90
15083;DHT22;7640;53.116;6.878;2023-08-30T13:27:37;18.30;99.90
15083;DHT22;7640;53.116;6.878;2023-08-30T13:30:06;18.20;99.90
15083;DHT22;7640;53.116;6.878;2023-08-30T13:32:35;18.10;99.90
15083;DHT22;7640;53.116;6.878;2023-08-30T13:35:05;18.10;99.90
15083;DHT22;7640;53.116;6.878;2023-08-30T13:37:34;18.10;99.90
15083;DHT22;7640;53.116;6.878;2023-08-30T13:40:03;18.20;99.90
15083;DHT22;7640;53.116;6.878;2023-08-30T13:42:34;18.30;99.90
15083;DHT22;7640;53.116;6.878;2023-08-30T13:45:04;18.30;99.90
15083;DHT22;7640;53.116;6.878;2023-08-30T13:47:33;18.40;99.90
15083;DHT22;7640;53.116;6.878;2023-08-30T13:50:02;18.40;99.90
15083;DHT22;7640;53.116;6.878;2023-08-30T13:52:32;18.50;99.90
15083;DHT22;7640;53.116;6.878;2023-08-30T13:55:01;18.50;99.90
15083;DHT22;7640;53.116;6.878;2023-08-30T13:57:30;18.50;99.90
15083;DHT22;7640;53.116;6.878;2023-08-30T14:00:00;18.60;99.90
15083;DHT22;7640;53.116;6.878;2023-08-30T14:02:34;18.50;99.90
15083;DHT22;7640;53.116;6.878;2023-08-30T14:05:03;18.50;99.90
15083;DHT22;7640;53.116;6.878;2023-08-30T14:07:33;18.50;99.90
15083;DHT22;7640;53.116;6.878;2023-08-30T14:10:02;18.40;99.90
15083;DHT22;7640;53.116;6.878;2023-08-30T14:12:31;18.30;99.90
15083;DHT22;7640;53.116;6.878;2023-08-30T14:15:03;18.20;99.90
15083;DHT22;7640;53.116;6.878;2023-08-30T14:17:32;18.10;99.90
15083;DHT22;7640;53.116;6.878;2023-08-30T14:20:02;18.10;99.90
15083;DHT22;7640;53.116;6.878;2023-08-30T14:22:32;18.00;99.90
15083;DHT22;7640;53.116;6.878;2023-08-30T14:25:02;18.00;99.90
15083;DHT22;7640;53.116;6.878;2023-08-30T14:27:38;17.90;99.90
15083;DHT22;7640;53.116;6.878;2023-08-30T14:30:10;17.80;99.90
15083;DHT22;7640;53.116;6.878;2023-08-30T14:32:38;17.70;99.90
15083;DHT22;7640;53.116;6.878;2023-08-30T14:35:08;17.50;99.90
15083;DHT22;7640;53.116;6.878;2023-08-30T14:37:38;17.40;99.90
15083;DHT22;7640;53.116;6.878;2023-08-30T14:40:08;17.20;99.90
15083;DHT22;7640;53.116;6.878;2023-08-30T14:42:38;17.00;99.90
15083;DHT22;7640;53.116;6.878;2023-08-30T14:45:09;16.80;99.90
15083;DHT22;7640;53.116;6.878;2023-08-30T14:47:38;16.60;99.90
15083;DHT22;7640;53.116;6.878;2023-08-30T14:50:07;16.50;99.90
15083;DHT22;7640;53.116;6.878;2023-08-30T14:52:36;16.30;99.90
15083;DHT22;7640;53.116;6.878;2023-08-30T14:55:06;16.20;99.90
15083;DHT22;7640;53.116;6.878;2023-08-30T14:57:35;16.10;99.90
15083;DHT22;7640;53.116;6.878;2023-08-30T15:00:05;16.00;99.90
15083;DHT22;7640;53.116;6.878;2023-08-30T15:02:36;15.90;99.90
15083;DHT22;7640;53.116;6.878;2023-08-30T15:05:05;15.90;99.90
15083;DHT22;7640;53.116;6.878;2023-08-30T15:07:34;16.00;99.90
15083;DHT22;7640;53.116;6.878;2023-08-30T15:10:03;16.00;99.90
15083;DHT22;7640;53.116;6.878;2023-08-30T15:12:33;16.00;99.90
15083;DHT22;7640;53.116;6.878;2023-08-30T15:15:02;16.00;99.90
15083;DHT22;7640;53.116;6.878;2023-08-30T15:17:32;16.00;99.90
15083;DHT22;7640;53.116;6.878;2023-08-30T15:20:03;16.00;99.90
15083;DHT22;7640;53.116;6.878;2023-08-30T15:22:32;15.90;99.90
15083;DHT22;7640;53.116;6.878;2023-08-30T15:25:01;16.00;99.90
15083;DHT22;7640;53.116;6.878;2023-08-30T15:27:33;16.10;99.90
15083;DHT22;7640;53.116;6.878;2023-08-30T15:30:06;16.20;99.90
15083;DHT22;7640;53.116;6.878;2023-08-30T15:32:35;16.30;99.90
15083;DHT22;7640;53.116;6.878;2023-08-30T15:35:07;16.50;99.90
15083;DHT22;7640;53.116;6.878;2023-08-30T15:37:36;16.50;99.90
15083;DHT22;7640;53.116;6.878;2023-08-30T15:40:06;16.60;99.90
15083;DHT22;7640;53.116;6.878;2023-08-30T15:42:36;16.70;99.90
15083;DHT22;7640;53.116;6.878;2023-08-30T15:45:06;16.80;99.90
15083;DHT22;7640;53.116;6.878;2023-08-30T15:47:35;16.80;99.90
15083;DHT22;7640;53.116;6.878;2023-08-30T15:50:06;16.90;99.90
15083;DHT22;7640;53.116;6.878;2023-08-30T15:52:35;16.90;99.90
15083;DHT22;7640;53.116;6.878;2023-08-30T15:55:05;16.90;99.90
15083;DHT22;7640;53.116;6.878;2023-08-30T15:57:35;16.90;99.90
15083;DHT22;7640;53.116;6.878;2023-08-30T16:00:05;16.90;99.90
15083;DHT22;7640;53.116;6.878;2023-08-30T16:02:34;16.90;99.90